Air Quality Table

TIMESTAMP NO2 SO2 O3 PM10 PM2.5 TEMP HUM AIRPRES WS WD NO
2022-06-28 16:00 22.48 µg/m3 0.18 µg/m3 49.54 µg/m3 113.22 µg/m3 23.03 µg/m3 32.75 °C 48.72 % 1,006.66 mbar 3.53 m/s 167.8 Deg 6.81 µg/m3
2022-06-28 15:00 11.97 µg/m3 0.13 µg/m3 55.85 µg/m3 91.58 µg/m3 22.27 µg/m3 35.05 °C 28.8 % 1,006.91 mbar 3.73 m/s 178.47 Deg 3.52 µg/m3
2022-06-28 14:00 2.71 µg/m3 0.11 µg/m3 52.87 µg/m3 109.54 µg/m3 23.26 µg/m3 36.09 °C 19.62 % 1,007.08 mbar 3.61 m/s 210.89 Deg 1.14 µg/m3
2022-06-28 13:00 9.77 µg/m3 0.18 µg/m3 51 µg/m3 105.56 µg/m3 23.49 µg/m3 34.73 °C 26.97 % 1,007.29 mbar 3.64 m/s 189.9 Deg 3.46 µg/m3
2022-06-28 12:00 19.37 µg/m3 0.22 µg/m3 45.53 µg/m3 104.94 µg/m3 20.15 µg/m3 33.64 °C 33.17 % 1,007.56 mbar 3.59 m/s 169.65 Deg 8.28 µg/m3
2022-06-28 11:00 22.37 µg/m3 0.14 µg/m3 43.69 µg/m3 103.58 µg/m3 23.32 µg/m3 34 °C 26.57 % 1,007.79 mbar 3.31 m/s 194.47 Deg 9.87 µg/m3
2022-06-28 10:00 0 µg/m3 0 µg/m3 0 µg/m3 103.21 µg/m3 25.39 µg/m3 34.29 °C 23.25 % 1,007.77 mbar 2.61 m/s 193.63 Deg 0 µg/m3
2022-06-28 09:00 0 µg/m3 0 µg/m3 0 µg/m3 125.79 µg/m3 28.08 µg/m3 33.43 °C 22.5 % 1,007.77 mbar 1.94 m/s 221.72 Deg 0 µg/m3
2022-06-28 08:00 0 µg/m3 0 µg/m3 0 µg/m3 147.83 µg/m3 29.14 µg/m3 31.62 °C 33.51 % 1,007.74 mbar 1.63 m/s 207.13 Deg 0 µg/m3
2022-06-28 07:00 0 µg/m3 0 µg/m3 0 µg/m3 130.44 µg/m3 22.12 µg/m3 28.98 °C 46.48 % 1,007.41 mbar 0.9 m/s 296.75 Deg 0 µg/m3
2022-06-28 06:00 43.36 µg/m3 0.47 µg/m3 4 µg/m3 106.26 µg/m3 28.62 µg/m3 26.95 °C 54.34 % 1,007.23 mbar 1.51 m/s 314.13 Deg 16.94 µg/m3
2022-06-28 05:00 32.02 µg/m3 0.3 µg/m3 8.16 µg/m3 91.93 µg/m3 16.24 µg/m3 26.63 °C 55.55 % 1,006.98 mbar 1.76 m/s 326.1 Deg 12.49 µg/m3
2022-06-28 04:00 15.15 µg/m3 0.2 µg/m3 29.7 µg/m3 72.47 µg/m3 19.77 µg/m3 27.24 °C 51.35 % 1,006.58 mbar 1.71 m/s 349.55 Deg 1.65 µg/m3
2022-06-28 03:00 5.83 µg/m3 0.1 µg/m3 40.82 µg/m3 67.54 µg/m3 15.52 µg/m3 28.1 °C 48.8 % 1,006.66 mbar 1.46 m/s 303.18 Deg 0.69 µg/m3
2022-06-28 02:00 2.41 µg/m3 0.08 µg/m3 45.53 µg/m3 60.24 µg/m3 21.35 µg/m3 27.65 °C 53.98 % 1,007.04 mbar 1.63 m/s 230.98 Deg 0.69 µg/m3
2022-06-28 01:00 1.95 µg/m3 0.1 µg/m3 43.85 µg/m3 65.07 µg/m3 21.17 µg/m3 27.11 °C 65.97 % 1,007.43 mbar 3 m/s 216.82 Deg 0.68 µg/m3
2022-06-28 00:00 3.87 µg/m3 0.09 µg/m3 43.03 µg/m3 64.16 µg/m3 18.53 µg/m3 27.18 °C 69.51 % 1,007.87 mbar 2.96 m/s 202.48 Deg 0.93 µg/m3
2022-06-27 23:00 33.11 µg/m3 0.11 µg/m3 15.6 µg/m3 75.5 µg/m3 22.17 µg/m3 27.27 °C 73.25 % 1,008.14 mbar 3.14 m/s 189.42 Deg 2.09 µg/m3
2022-06-27 22:00 25.26 µg/m3 0.13 µg/m3 23.46 µg/m3 86.82 µg/m3 22.9 µg/m3 27.54 °C 74.19 % 1,008.30 mbar 3 m/s 180.85 Deg 2.38 µg/m3
2022-06-27 21:00 45.33 µg/m3 0.13 µg/m3 5.12 µg/m3 90.67 µg/m3 24.74 µg/m3 27.62 °C 72.25 % 1,008.13 mbar 2.58 m/s 184.78 Deg 3.67 µg/m3
2022-06-27 20:00 45.82 µg/m3 0.13 µg/m3 4.73 µg/m3 79.65 µg/m3 15.61 µg/m3 27.96 °C 71.4 % 1,008.06 mbar 2.54 m/s 188.53 Deg 6.34 µg/m3
2022-06-27 19:00 5.62 µg/m3 0.09 µg/m3 43.8 µg/m3 86.18 µg/m3 16.87 µg/m3 28.52 °C 68.71 % 1,008.15 mbar 2.92 m/s 179.83 Deg 1.26 µg/m3

It is to be noted that the data is provisional and subject to quality assurance procedures. For validated data kindly refer your request to contact.air@era.org.mt